Time;durP1;ratioP1;P1;durP2;ratioP2;P2;SDS_P1;SDS_P2;PMS_P1;PMS_P2;Temp;Humidity;BMP_temperature;BMP_pressure;BME280_temperature;BME280_humidity;BME280_pressure;Samples;Min_cycle;Max_cycle;Signal;HPM_P1;HPM_P2
2022/03/31 00:00:32;;;;;;;;;;;;;;;;;;5088795;28;19993;-69
2022/03/31 00:02:59;;;;;;;;;;;;;;;;;;5091043;28;20326;-68
2022/03/31 00:05:25;;;;;;;;;;;;;;;;;;5088864;28;20411;-68
2022/03/31 00:07:52;;;;;;;;;;;;;;;;;;5091220;28;19930;-68
2022/03/31 00:10:20;;;;;;;;;;;;;;;;;;5089653;28;19930;-68
2022/03/31 00:12:47;;;;;;;;;;;;;;;;;;5087972;28;20018;-74
2022/03/31 00:15:14;;;;;;;;;;;;;;;;;;5087867;28;20344;-68
2022/03/31 00:17:41;;;;;;;;;;;;;;;;;;5089007;28;19924;-68
2022/03/31 00:20:08;;;;;;;;;;;;;;;;;;5090075;28;19931;-68
2022/03/31 00:22:35;;;;;;;;;;;;;;;;;;5089001;28;19924;-68
2022/03/31 00:25:02;;;;;;;;;;;;;;;;;;5087758;28;19928;-68
2022/03/31 00:27:29;;;;;;;;;;;;;;;;;;5089823;28;20051;-68
2022/03/31 00:29:56;;;;;;;;;;;;;;;;;;5088344;28;20866;-68
2022/03/31 00:32:23;;;;;;;;;;;;;;;;;;5091686;28;19930;-68
2022/03/31 00:34:50;;;;;;;;;;;;;;;;;;5084422;28;19935;-68
2022/03/31 00:37:17;;;;;;;;;;;;;;;;;;5090166;28;19924;-69
2022/03/31 00:39:44;;;;;;;;;;;;;;;;;;5084741;28;19985;-68
2022/03/31 00:42:11;;;;;;;;;;;;;;;;;;5091485;28;19967;-68
2022/03/31 00:44:41;;;;;;;;;;;;;;;;;;5089993;28;19932;-68
2022/03/31 00:47:08;;;;;;;;;;;;;;;;;;5090403;28;20375;-69
2022/03/31 00:49:35;;;;;;;;;;;;;;;;;;5089473;28;19924;-68
2022/03/31 00:52:02;;;;;;;;;;;;;;;;;;5090328;28;20007;-70
2022/03/31 00:54:29;;;;;;;;;;;;;;;;;;5087701;28;19924;-69
2022/03/31 00:56:56;;;;;;;;;;;;;;;;;;5088584;28;20310;-69
2022/03/31 00:59:23;;;;;;;;;;;;;;;;;;5088441;28;19932;-70
2022/03/31 01:01:51;;;;;;;;;;;;;;;;;;5090442;28;20340;-69
2022/03/31 01:04:18;;;;;;;;;;;;;;;;;;5090171;28;19960;-73
2022/03/31 01:06:45;;;;;;;;;;;;;;;;;;5091034;28;19924;-69
2022/03/31 01:09:12;;;;;;;;;;;;;;;;;;5088538;28;19946;-69
2022/03/31 01:11:39;;;;;;;;;;;;;;;;;;5087510;28;19924;-69
2022/03/31 01:14:07;;;;;;;;;;;;;;;;;;5088372;28;19923;-69
2022/03/31 01:16:34;;;;;;;;;;;;;;;;;;5087033;28;19924;-69
2022/03/31 01:19:01;;;;;;;;;;;;;;;;;;5089026;28;19934;-69
2022/03/31 01:21:28;;;;;;;;;;;;;;;;;;5088278;28;20030;-69
2022/03/31 01:23:55;;;;;;;;;;;;;;;;;;5090429;28;19932;-69
2022/03/31 01:26:21;;;;;;;;;;;;;;;;;;5087533;28;19930;-69
2022/03/31 01:28:50;;;;;;;;;;;;;;;;;;5090149;28;19931;-69
2022/03/31 01:31:17;;;;;;;;;;;;;;;;;;5088088;28;19931;-68
2022/03/31 01:33:44;;;;;;;;;;;;;;;;;;5090055;28;20011;-68
2022/03/31 01:36:11;;;;;;;;;;;;;;;;;;5085900;28;20012;-69
2022/03/31 01:38:38;;;;;;;;;;;;;;;;;;5090347;28;19977;-69
2022/03/31 01:41:07;;;;;;;;;;;;;;;;;;5088542;28;19931;-69
2022/03/31 01:43:34;;;;;;;;;;;;;;;;;;5089574;28;19985;-69
2022/03/31 01:46:01;;;;;;;;;;;;;;;;;;5086561;28;19924;-69
2022/03/31 01:48:28;;;;;;;;;;;;;;;;;;5090479;28;19924;-69
2022/03/31 01:50:55;;;;;;;;;;;;;;;;;;5089003;28;19924;-69
2022/03/31 01:53:22;;;;;;;;;;;;;;;;;;5089662;28;19924;-68
2022/03/31 01:55:49;;;;;;;;;;;;;;;;;;5084776;28;19931;-68
2022/03/31 01:58:16;;;;;;;;;;;;;;;;;;5089012;28;19924;-69
2022/03/31 02:00:43;;;;;;;;;;;;;;;;;;5087857;28;19928;-69
2022/03/31 02:03:10;;;;;;;;;;;;;;;;;;5089061;28;19924;-68
2022/03/31 02:05:37;;;;;;;;;;;;;;;;;;5085339;28;19932;-68
2022/03/31 02:08:04;;;;;;;;;;;;;;;;;;5089610;28;20011;-68
2022/03/31 02:10:31;;;;;;;;;;;;;;;;;;5087863;28;19928;-68
2022/03/31 02:12:58;;;;;;;;;;;;;;;;;;5089876;28;20006;-68
2022/03/31 02:15:25;;;;;;;;;;;;;;;;;;5087032;28;19928;-68
2022/03/31 02:17:52;;;;;;;;;;;;;;;;;;5085813;28;19935;-68
2022/03/31 02:20:19;;;;;;;;;;;;;;;;;;5086844;28;19924;-68
2022/03/31 02:22:46;;;;;;;;;;;;;;;;;;5089405;28;19924;-71
2022/03/31 02:25:13;;;;;;;;;;;;;;;;;;5080298;28;19924;-69
2022/03/31 02:27:39;;;;;;;;;;;;;;;;;;5086118;28;19924;-68
2022/03/31 02:30:06;;;;;;;;;;;;;;;;;;5089001;28;19947;-68
2022/03/31 02:32:34;;;;;;;;;;;;;;;;;;5089353;28;20282;-68
2022/03/31 02:35:01;;;;;;;;;;;;;;;;;;5087949;28;20302;-68
2022/03/31 02:37:28;;;;;;;;;;;;;;;;;;5088195;28;19931;-69
2022/03/31 02:39:55;;;;;;;;;;;;;;;;;;5088791;28;19930;-68
2022/03/31 02:42:22;;;;;;;;;;;;;;;;;;5090630;28;19924;-68
2022/03/31 02:44:49;;;;;;;;;;;;;;;;;;5089911;28;19924;-68
2022/03/31 02:47:16;;;;;;;;;;;;;;;;;;5088516;28;20417;-68
2022/03/31 02:49:44;;;;;;;;;;;;;;;;;;5088852;28;19932;-68
2022/03/31 02:52:11;;;;;;;;;;;;;;;;;;5092817;28;19935;-68
2022/03/31 02:57:22;;;;;;;;;;;;;;;;;;5086116;28;19999;-68
2022/03/31 02:59:49;;;;;;;;;;;;;;;;;;5091826;28;19924;-68
2022/03/31 03:02:16;;;;;;;;;;;;;;;;;;5093742;28;19924;-68
2022/03/31 03:04:43;;;;;;;;;;;;;;;;;;5090535;28;19995;-68
2022/03/31 03:07:10;;;;;;;;;;;;;;;;;;5093998;28;19924;-70
2022/03/31 03:09:37;;;;;;;;;;;;;;;;;;5090799;28;20401;-69
2022/03/31 03:12:05;;;;;;;;;;;;;;;;;;5092294;28;19924;-70
2022/03/31 03:14:32;;;;;;;;;;;;;;;;;;5091819;28;19924;-68
2022/03/31 03:16:59;;;;;;;;;;;;;;;;;;5089499;28;19924;-69
2022/03/31 03:19:26;;;;;;;;;;;;;;;;;;5101196;28;19925;-68
2022/03/31 03:21:55;;;;;;;;;;;;;;;;;;5090181;28;21582;-68
2022/03/31 03:24:23;;;;;;;;;;;;;;;;;;5087570;28;19934;-68
2022/03/31 03:26:50;;;;;;;;;;;;;;;;;;5092978;28;19940;-68
2022/03/31 03:29:17;;;;;;;;;;;;;;;;;;5090616;28;19955;-68
2022/03/31 03:31:44;;;;;;;;;;;;;;;;;;5092748;28;19932;-68
2022/03/31 03:34:10;;;;;;;;;;;;;;;;;;5086948;28;19939;-68
2022/03/31 03:36:37;;;;;;;;;;;;;;;;;;5092815;28;19924;-68
2022/03/31 03:39:06;;;;;;;;;;;;;;;;;;5090339;28;19924;-69
2022/03/31 03:41:33;;;;;;;;;;;;;;;;;;5087571;28;20366;-69
2022/03/31 03:43:59;;;;;;;;;;;;;;;;;;5091234;28;19924;-69
2022/03/31 03:46:26;;;;;;;;;;;;;;;;;;5089103;28;19932;-68
2022/03/31 03:48:54;;;;;;;;;;;;;;;;;;5090187;28;19924;-69
2022/03/31 03:51:20;;;;;;;;;;;;;;;;;;5090327;28;19931;-69
2022/03/31 03:53:47;;;;;;;;;;;;;;;;;;5090760;28;19924;-68
2022/03/31 03:56:14;;;;;;;;;;;;;;;;;;5092131;28;19924;-68
2022/03/31 03:58:41;;;;;;;;;;;;;;;;;;5092514;28;20018;-69
2022/03/31 04:01:09;;;;;;;;;;;;;;;;;;5087220;28;19924;-68
2022/03/31 04:03:38;;;;;;;;;;;;;;;;;;5092871;28;19924;-69
2022/03/31 04:06:05;;;;;;;;;;;;;;;;;;5090291;28;20406;-68
2022/03/31 04:08:32;;;;;;;;;;;;;;;;;;5093312;28;19928;-70
2022/03/31 04:10:59;;;;;;;;;;;;;;;;;;5089642;28;19930;-71
2022/03/31 04:13:26;;;;;;;;;;;;;;;;;;5094301;28;19931;-70
2022/03/31 04:15:53;;;;;;;;;;;;;;;;;;5090406;28;19924;-69
2022/03/31 04:18:20;;;;;;;;;;;;;;;;;;5091321;28;19924;-69
2022/03/31 04:20:46;;;;;;;;;;;;;;;;;;5086381;28;19924;-70
2022/03/31 04:23:13;;;;;;;;;;;;;;;;;;5087465;28;19931;-70
2022/03/31 04:25:40;;;;;;;;;;;;;;;;;;5090469;28;19924;-70
2022/03/31 04:28:07;;;;;;;;;;;;;;;;;;5089840;28;19930;-70
2022/03/31 04:30:34;;;;;;;;;;;;;;;;;;5088388;28;19924;-70
2022/03/31 04:33:01;;;;;;;;;;;;;;;;;;5088530;28;20007;-72
2022/03/31 04:35:29;;;;;;;;;;;;;;;;;;5088948;28;19931;-69
2022/03/31 04:37:56;;;;;;;;;;;;;;;;;;5087506;28;20254;-68
2022/03/31 04:40:23;;;;;;;;;;;;;;;;;;5089875;28;20398;-68
2022/03/31 04:42:50;;;;;;;;;;;;;;;;;;5091391;28;19924;-68
2022/03/31 04:45:17;;;;;;;;;;;;;;;;;;5090028;28;20011;-69
2022/03/31 04:47:44;;;;;;;;;;;;;;;;;;5091719;28;19970;-69
2022/03/31 04:50:11;;;;;;;;;;;;;;;;;;5083365;28;20014;-69
2022/03/31 04:52:38;;;;;;;;;;;;;;;;;;5088440;28;19930;-69
2022/03/31 04:55:05;;;;;;;;;;;;;;;;;;5086546;28;19924;-69
2022/03/31 04:57:32;;;;;;;;;;;;;;;;;;5090819;28;19928;-69
2022/03/31 04:59:59;;;;;;;;;;;;;;;;;;5086143;28;19931;-68
2022/03/31 05:02:25;;;;;;;;;;;;;;;;;;5085788;28;19924;-68
2022/03/31 05:04:52;;;;;;;;;;;;;;;;;;5086831;28;19936;-69
2022/03/31 05:07:19;;;;;;;;;;;;;;;;;;5089135;28;20023;-68
2022/03/31 05:09:46;;;;;;;;;;;;;;;;;;5088974;28;19924;-69
2022/03/31 05:12:13;;;;;;;;;;;;;;;;;;5086501;28;19931;-68
2022/03/31 05:14:40;;;;;;;;;;;;;;;;;;5089103;28;19924;-68
2022/03/31 05:17:07;;;;;;;;;;;;;;;;;;5089831;28;19946;-68
2022/03/31 05:19:34;;;;;;;;;;;;;;;;;;5085045;28;19924;-68
2022/03/31 05:22:01;;;;;;;;;;;;;;;;;;5086773;28;19935;-68
2022/03/31 05:24:28;;;;;;;;;;;;;;;;;;5070255;28;19928;-69
2022/03/31 05:26:55;;;;;;;;;;;;;;;;;;5082872;28;20409;-69
2022/03/31 05:29:22;;;;;;;;;;;;;;;;;;5087819;28;19929;-71
2022/03/31 05:31:49;;;;;;;;;;;;;;;;;;5081800;28;20021;-71
2022/03/31 05:34:16;;;;;;;;;;;;;;;;;;5061393;28;19933;-71
2022/03/31 05:36:43;;;;;;;;;;;;;;;;;;5085847;28;19930;-70
2022/03/31 05:39:10;;;;;;;;;;;;;;;;;;5085347;28;19930;-71
2022/03/31 05:41:37;;;;;;;;;;;;;;;;;;5072229;28;20442;-71
2022/03/31 05:44:04;;;;;;;;;;;;;;;;;;5077093;28;19926;-72
2022/03/31 05:46:31;;;;;;;;;;;;;;;;;;5087063;28;20417;-72
2022/03/31 05:48:58;;;;;;;;;;;;;;;;;;5074035;28;19924;-71
2022/03/31 05:51:25;;;;;;;;;;;;;;;;;;5083476;28;19982;-69
2022/03/31 05:53:52;;;;;;;;;;;;;;;;;;5080608;28;19929;-69
2022/03/31 05:56:19;;;;;;;;;;;;;;;;;;5077537;28;20019;-69
2022/03/31 05:58:46;;;;;;;;;;;;;;;;;;5077466;28;20007;-69
2022/03/31 06:01:13;;;;;;;;;;;;;;;;;;5070481;28;19966;-68
2022/03/31 06:03:40;;;;;;;;;;;;;;;;;;5084605;28;19928;-68
2022/03/31 06:06:07;;;;;;;;;;;;;;;;;;5071254;28;19924;-68
2022/03/31 06:08:34;;;;;;;;;;;;;;;;;;5084709;28;19930;-69
2022/03/31 06:11:01;;;;;;;;;;;;;;;;;;5077502;28;20038;-70
2022/03/31 06:13:28;;;;;;;;;;;;;;;;;;5075022;28;19925;-68
2022/03/31 06:15:55;;;;;;;;;;;;;;;;;;5083920;28;20026;-70
2022/03/31 06:18:22;;;;;;;;;;;;;;;;;;5070789;28;19933;-67
2022/03/31 06:20:49;;;;;;;;;;;;;;;;;;5083138;28;19930;-69
2022/03/31 06:23:16;;;;;;;;;;;;;;;;;;5085211;28;20025;-69
2022/03/31 06:25:43;;;;;;;;;;;;;;;;;;5092993;28;20015;-69
2022/03/31 06:28:10;;;;;;;;;;;;;;;;;;5081793;28;19925;-69
2022/03/31 06:30:37;;;;;;;;;;;;;;;;;;5086060;28;20295;-70
2022/03/31 06:33:04;;;;;;;;;;;;;;;;;;5079588;28;20390;-70
2022/03/31 06:35:31;;;;;;;;;;;;;;;;;;5085177;28;19924;-70
2022/03/31 06:37:59;;;;;;;;;;;;;;;;;;5077564;28;19930;-71
2022/03/31 06:40:27;;;;;;;;;;;;;;;;;;5084770;28;19924;-70
2022/03/31 06:42:54;;;;;;;;;;;;;;;;;;5089193;28;19959;-70
2022/03/31 06:45:21;;;;;;;;;;;;;;;;;;5085091;28;19924;-70
2022/03/31 06:47:48;;;;;;;;;;;;;;;;;;5074621;28;19931;-70
2022/03/31 06:50:15;;;;;;;;;;;;;;;;;;5081469;28;19930;-70
2022/03/31 06:52:42;;;;;;;;;;;;;;;;;;5085446;28;19939;-68
2022/03/31 06:55:09;;;;;;;;;;;;;;;;;;5081793;28;19947;-68
2022/03/31 06:57:37;;;;;;;;;;;;;;;;;;5072939;28;20298;-69
2022/03/31 07:00:04;;;;;;;;;;;;;;;;;;5078840;28;20666;-68
2022/03/31 07:02:31;;;;;;;;;;;;;;;;;;5086420;28;19971;-69
2022/03/31 07:04:58;;;;;;;;;;;;;;;;;;5078705;28;19968;-68
2022/03/31 07:07:25;;;;;;;;;;;;;;;;;;5081220;28;19924;-71
2022/03/31 07:09:52;;;;;;;;;;;;;;;;;;5082317;28;19924;-69
2022/03/31 07:12:19;;;;;;;;;;;;;;;;;;5082755;28;19924;-69
2022/03/31 07:14:46;;;;;;;;;;;;;;;;;;5085074;28;19924;-69
2022/03/31 07:17:13;;;;;;;;;;;;;;;;;;5079815;28;19982;-68
2022/03/31 07:19:40;;;;;;;;;;;;;;;;;;5080751;28;20006;-69
2022/03/31 07:22:07;;;;;;;;;;;;;;;;;;5074760;28;19939;-68
2022/03/31 07:24:34;;;;;;;;;;;;;;;;;;5082809;28;20651;-69
2022/03/31 07:27:01;;;;;;;;;;;;;;;;;;5097625;28;19924;-68
2022/03/31 07:29:28;;;;;;;;;;;;;;;;;;5088309;28;19932;-69
2022/03/31 07:31:55;;;;;;;;;;;;;;;;;;5086751;28;19924;-69
2022/03/31 07:34:22;;;;;;;;;;;;;;;;;;5079332;28;19924;-69
2022/03/31 07:36:49;;;;;;;;;;;;;;;;;;5092212;28;20284;-68
2022/03/31 07:39:16;;;;;;;;;;;;;;;;;;5089855;28;20451;-68
2022/03/31 07:41:43;;;;;;;;;;;;;;;;;;5093036;28;20606;-68
2022/03/31 07:44:10;;;;;;;;;;;;;;;;;;5091690;28;19978;-69
2022/03/31 07:46:37;;;;;;;;;;;;;;;;;;5092508;28;19968;-69
2022/03/31 07:49:04;;;;;;;;;;;;;;;;;;5087899;28;19939;-68
2022/03/31 07:51:31;;;;;;;;;;;;;;;;;;5092570;28;19979;-69
2022/03/31 07:53:58;;;;;;;;;;;;;;;;;;5089101;28;19939;-69
2022/03/31 07:56:25;;;;;;;;;;;;;;;;;;5091433;28;20404;-70
2022/03/31 07:58:52;;;;;;;;;;;;;;;;;;5092190;28;20014;-69
2022/03/31 08:01:19;;;;;;;;;;;;;;;;;;5092134;28;19983;-71
2022/03/31 08:03:46;;;;;;;;;;;;;;;;;;5094117;28;20010;-69
2022/03/31 08:06:13;;;;;;;;;;;;;;;;;;5089170;28;19924;-68
2022/03/31 08:08:40;;;;;;;;;;;;;;;;;;5088996;28;19932;-70
2022/03/31 08:11:08;;;;;;;;;;;;;;;;;;5088620;28;20303;-68
2022/03/31 08:13:36;;;;;;;;;;;;;;;;;;5091812;28;20345;-68
2022/03/31 08:16:04;;;;;;;;;;;;;;;;;;5079605;28;19924;-68
2022/03/31 08:18:33;;;;;;;;;;;;;;;;;;5084526;28;20004;-68
2022/03/31 08:21:00;;;;;;;;;;;;;;;;;;5089754;28;20336;-68
2022/03/31 08:23:27;;;;;;;;;;;;;;;;;;5065620;28;20301;-67
2022/03/31 08:25:54;;;;;;;;;;;;;;;;;;5075741;28;20407;-71
2022/03/31 08:28:21;;;;;;;;;;;;;;;;;;5066914;28;19925;-70
2022/03/31 08:30:48;;;;;;;;;;;;;;;;;;5071796;28;19931;-69
2022/03/31 08:33:15;;;;;;;;;;;;;;;;;;5057968;28;19924;-69
2022/03/31 08:35:42;;;;;;;;;;;;;;;;;;5071262;28;19925;-68
2022/03/31 08:38:09;;;;;;;;;;;;;;;;;;5069177;28;19932;-69
2022/03/31 08:40:37;;;;;;;;;;;;;;;;;;5056757;28;20447;-70
2022/03/31 08:43:04;;;;;;;;;;;;;;;;;;5066683;28;19925;-69
2022/03/31 08:45:31;;;;;;;;;;;;;;;;;;5057267;28;19931;-69
2022/03/31 08:48:00;;;;;;;;;;;;;;;;;;5062307;28;19925;-70
2022/03/31 08:50:27;;;;;;;;;;;;;;;;;;5060134;28;19971;-68
2022/03/31 08:52:54;;;;;;;;;;;;;;;;;;5072514;28;19925;-69
2022/03/31 08:55:21;;;;;;;;;;;;;;;;;;5060988;28;20005;-69
2022/03/31 08:57:49;;;;;;;;;;;;;;;;;;5072573;28;19924;-69
2022/03/31 09:00:16;;;;;;;;;;;;;;;;;;5061207;28;19924;-69
2022/03/31 09:02:43;;;;;;;;;;;;;;;;;;5071695;28;19925;-69
2022/03/31 09:05:10;;;;;;;;;;;;;;;;;;5062528;28;20362;-70
2022/03/31 09:07:37;;;;;;;;;;;;;;;;;;5067001;28;19925;-77
2022/03/31 09:10:04;;;;;;;;;;;;;;;;;;5070542;28;19927;-70
2022/03/31 09:12:31;;;;;;;;;;;;;;;;;;5067363;28;19940;-72
2022/03/31 09:14:58;;;;;;;;;;;;;;;;;;5056859;28;19925;-68
2022/03/31 09:17:25;;;;;;;;;;;;;;;;;;5061213;28;19976;-70
2022/03/31 09:19:52;;;;;;;;;;;;;;;;;;5064237;28;20383;-69
2022/03/31 09:22:19;;;;;;;;;;;;;;;;;;5070909;28;19935;-68
2022/03/31 09:24:46;;;;;;;;;;;;;;;;;;5088410;28;19932;-68
2022/03/31 09:27:13;;;;;;;;;;;;;;;;;;5090467;28;19924;-70
2022/03/31 09:29:40;;;;;;;;;;;;;;;;;;5086830;28;19976;-68
2022/03/31 09:32:07;;;;;;;;;;;;;;;;;;5088700;28;19924;-71
2022/03/31 09:34:34;;;;;;;;;;;;;;;;;;5086060;28;19982;-69
2022/03/31 09:37:01;;;;;;;;;;;;;;;;;;5089667;28;19931;-68
2022/03/31 09:39:28;;;;;;;;;;;;;;;;;;5089395;28;19964;-68
2022/03/31 09:41:55;;;;;;;;;;;;;;;;;;5090540;28;19924;-68
2022/03/31 09:44:23;;;;;;;;;;;;;;;;;;5085716;28;20018;-69
2022/03/31 09:46:50;;;;;;;;;;;;;;;;;;5087474;28;19924;-68
2022/03/31 09:49:17;;;;;;;;;;;;;;;;;;5088924;28;19932;-68
2022/03/31 09:51:44;;;;;;;;;;;;;;;;;;5094955;28;20020;-69
2022/03/31 09:54:11;;;;;;;;;;;;;;;;;;5091400;28;19924;-69
2022/03/31 09:56:40;;;;;;;;;;;;;;;;;;5093834;28;20011;-68
2022/03/31 09:59:07;;;;;;;;;;;;;;;;;;5091516;28;19924;-68
2022/03/31 10:01:34;;;;;;;;;;;;;;;;;;5091758;28;19924;-68
2022/03/31 10:04:02;;;;;;;;;;;;;;;;;;5090534;28;19924;-68
2022/03/31 10:06:29;;;;;;;;;;;;;;;;;;5093855;28;19924;-68
2022/03/31 10:08:57;;;;;;;;;;;;;;;;;;5092796;28;19931;-69
2022/03/31 10:11:25;;;;;;;;;;;;;;;;;;5091094;28;19973;-67
2022/03/31 10:13:52;;;;;;;;;;;;;;;;;;5091099;28;19974;-70
2022/03/31 10:16:19;;;;;;;;;;;;;;;;;;5092844;28;19931;-70
2022/03/31 10:18:47;;;;;;;;;;;;;;;;;;5090321;28;19932;-68
2022/03/31 10:21:15;;;;;;;;;;;;;;;;;;5089481;28;19924;-70
2022/03/31 10:26:33;;;;;;;;;;;;;;;;;;5058474;28;20414;-69
2022/03/31 10:29:00;;;;;;;;;;;;;;;;;;5069061;28;19928;-68
2022/03/31 10:31:27;;;;;;;;;;;;;;;;;;5086835;28;19924;-68
2022/03/31 10:33:54;;;;;;;;;;;;;;;;;;5083602;28;19925;-67
2022/03/31 10:36:21;;;;;;;;;;;;;;;;;;5074211;28;19978;-67
2022/03/31 10:38:48;;;;;;;;;;;;;;;;;;5072317;28;19925;-67
2022/03/31 10:41:15;;;;;;;;;;;;;;;;;;5073912;28;19999;-67
2022/03/31 10:43:42;;;;;;;;;;;;;;;;;;5073860;28;19971;-68
2022/03/31 10:46:09;;;;;;;;;;;;;;;;;;5064470;28;20019;-67
2022/03/31 10:48:36;;;;;;;;;;;;;;;;;;5070921;28;19931;-68
2022/03/31 10:51:03;;;;;;;;;;;;;;;;;;5071484;28;20342;-69
2022/03/31 10:53:30;;;;;;;;;;;;;;;;;;5069794;28;19924;-68
2022/03/31 10:55:57;;;;;;;;;;;;;;;;;;5065245;28;19931;-68
2022/03/31 10:58:26;;;;;;;;;;;;;;;;;;5069054;28;19925;-68
2022/03/31 11:00:53;;;;;;;;;;;;;;;;;;5066941;28;19928;-69
2022/03/31 11:03:20;;;;;;;;;;;;;;;;;;5069930;28;19963;-69
2022/03/31 11:05:47;;;;;;;;;;;;;;;;;;5069233;28;19929;-68
2022/03/31 11:08:17;;;;;;;;;;;;;;;;;;5068570;28;20022;-69
2022/03/31 11:10:45;;;;;;;;;;;;;;;;;;5063928;28;19925;-68
2022/03/31 11:13:13;;;;;;;;;;;;;;;;;;5068696;28;19931;-68
2022/03/31 11:15:40;;;;;;;;;;;;;;;;;;5066109;28;19978;-69
2022/03/31 11:18:08;;;;;;;;;;;;;;;;;;5067650;28;19924;-69
2022/03/31 11:20:35;;;;;;;;;;;;;;;;;;5061643;28;21011;-68
2022/03/31 11:23:03;;;;;;;;;;;;;;;;;;5076376;28;19978;-68
2022/03/31 11:25:30;;;;;;;;;;;;;;;;;;5084682;28;19924;-68
2022/03/31 11:27:58;;;;;;;;;;;;;;;;;;5092138;28;19963;-68
2022/03/31 11:30:25;;;;;;;;;;;;;;;;;;5091189;28;19950;-67
2022/03/31 11:32:52;;;;;;;;;;;;;;;;;;5092845;28;19924;-69
2022/03/31 11:35:19;;;;;;;;;;;;;;;;;;5090912;28;20397;-69
2022/03/31 11:37:46;;;;;;;;;;;;;;;;;;5089003;28;19955;-69
2022/03/31 11:40:13;;;;;;;;;;;;;;;;;;5079541;28;19932;-68
2022/03/31 11:42:40;;;;;;;;;;;;;;;;;;5088332;28;20452;-68
2022/03/31 11:45:08;;;;;;;;;;;;;;;;;;5086036;28;19932;-69
2022/03/31 11:47:35;;;;;;;;;;;;;;;;;;5088123;28;20295;-69
2022/03/31 11:50:02;;;;;;;;;;;;;;;;;;5087726;28;19928;-71
2022/03/31 11:52:29;;;;;;;;;;;;;;;;;;5088908;28;20011;-70
2022/03/31 11:55:00;;;;;;;;;;;;;;;;;;5092064;28;19947;-69
2022/03/31 11:57:27;;;;;;;;;;;;;;;;;;5085639;28;19924;-72
2022/03/31 11:59:54;;;;;;;;;;;;;;;;;;5089327;28;20401;-70
2022/03/31 12:02:21;;;;;;;;;;;;;;;;;;5089659;28;19932;-69
2022/03/31 12:04:48;;;;;;;;;;;;;;;;;;5090235;28;20010;-69
2022/03/31 12:07:15;;;;;;;;;;;;;;;;;;5089522;28;19924;-69
2022/03/31 12:09:42;;;;;;;;;;;;;;;;;;5082888;28;19948;-68
2022/03/31 12:12:09;;;;;;;;;;;;;;;;;;5087712;28;19932;-71
2022/03/31 12:14:37;;;;;;;;;;;;;;;;;;5087827;28;20315;-70
2022/03/31 12:17:04;;;;;;;;;;;;;;;;;;5090579;28;19932;-71
2022/03/31 12:19:31;;;;;;;;;;;;;;;;;;5087132;28;20295;-70
2022/03/31 12:21:58;;;;;;;;;;;;;;;;;;5088964;28;19924;-70
2022/03/31 12:24:25;;;;;;;;;;;;;;;;;;5072255;28;19924;-71
2022/03/31 12:26:53;;;;;;;;;;;;;;;;;;5070807;28;19976;-70
2022/03/31 12:29:20;;;;;;;;;;;;;;;;;;5069306;28;20284;-70
2022/03/31 12:31:48;;;;;;;;;;;;;;;;;;5071874;28;20003;-70
2022/03/31 12:34:15;;;;;;;;;;;;;;;;;;5067932;28;20293;-70
2022/03/31 12:36:42;;;;;;;;;;;;;;;;;;5070469;28;20275;-70
2022/03/31 12:39:09;;;;;;;;;;;;;;;;;;5063890;28;19933;-71
2022/03/31 12:41:36;;;;;;;;;;;;;;;;;;5070592;28;19931;-71
2022/03/31 12:44:03;;;;;;;;;;;;;;;;;;5064822;28;19951;-71
2022/03/31 12:46:31;;;;;;;;;;;;;;;;;;5079210;28;20408;-70
2022/03/31 12:48:58;;;;;;;;;;;;;;;;;;5070329;28;19925;-69
2022/03/31 12:51:25;;;;;;;;;;;;;;;;;;5073976;28;20141;-70
2022/03/31 12:53:52;;;;;;;;;;;;;;;;;;5065949;28;19929;-70
2022/03/31 12:56:19;;;;;;;;;;;;;;;;;;5067268;28;19960;-68
2022/03/31 12:58:46;;;;;;;;;;;;;;;;;;5074126;28;19924;-70
2022/03/31 13:01:13;;;;;;;;;;;;;;;;;;5063648;28;19932;-70
2022/03/31 13:03:40;;;;;;;;;;;;;;;;;;5066828;28;20352;-67
2022/03/31 13:06:07;;;;;;;;;;;;;;;;;;5066440;28;20272;-68
2022/03/31 13:08:34;;;;;;;;;;;;;;;;;;5065089;28;20007;-68
2022/03/31 13:11:01;;;;;;;;;;;;;;;;;;5066083;28;19932;-68
2022/03/31 13:13:28;;;;;;;;;;;;;;;;;;5067271;28;19924;-68
2022/03/31 13:15:55;;;;;;;;;;;;;;;;;;5060973;28;20368;-69
2022/03/31 13:18:22;;;;;;;;;;;;;;;;;;5068911;28;20379;-69
2022/03/31 13:20:49;;;;;;;;;;;;;;;;;;5069142;28;20367;-69
2022/03/31 13:23:16;;;;;;;;;;;;;;;;;;5080284;28;19924;-69
2022/03/31 13:25:44;;;;;;;;;;;;;;;;;;5085016;28;19932;-72
2022/03/31 13:28:11;;;;;;;;;;;;;;;;;;5089957;28;19965;-71
2022/03/31 13:30:38;;;;;;;;;;;;;;;;;;5089206;28;19928;-68
2022/03/31 13:33:05;;;;;;;;;;;;;;;;;;5089965;28;19943;-71
2022/03/31 13:35:32;;;;;;;;;;;;;;;;;;5084239;28;19924;-71
2022/03/31 13:37:59;;;;;;;;;;;;;;;;;;5087779;28;19930;-70
2022/03/31 13:40:26;;;;;;;;;;;;;;;;;;5086923;28;19928;-71
2022/03/31 13:42:53;;;;;;;;;;;;;;;;;;5087948;28;19924;-70
2022/03/31 13:45:20;;;;;;;;;;;;;;;;;;5086771;28;20015;-71
2022/03/31 13:47:46;;;;;;;;;;;;;;;;;;5086365;28;19932;-70
2022/03/31 13:50:13;;;;;;;;;;;;;;;;;;5085914;28;19928;-71
2022/03/31 13:52:40;;;;;;;;;;;;;;;;;;5088826;28;19932;-71
2022/03/31 13:55:08;;;;;;;;;;;;;;;;;;5086463;28;19946;-70
2022/03/31 14:03:05;;;;;;;;;;;;;;;;;;5072637;28;19935;-69
2022/03/31 14:05:32;;;;;;;;;;;;;;;;;;5083955;28;19924;-70
2022/03/31 14:07:59;;;;;;;;;;;;;;;;;;5085469;28;19930;-69
2022/03/31 14:10:26;;;;;;;;;;;;;;;;;;5084583;28;20309;-70
2022/03/31 14:12:52;;;;;;;;;;;;;;;;;;5086068;28;20204;-70
2022/03/31 14:15:19;;;;;;;;;;;;;;;;;;5084340;28;20173;-70
2022/03/31 14:17:47;;;;;;;;;;;;;;;;;;5087445;28;19930;-71
2022/03/31 14:20:13;;;;;;;;;;;;;;;;;;5088427;28;19970;-70
2022/03/31 14:22:40;;;;;;;;;;;;;;;;;;5081556;28;20655;-70
2022/03/31 14:25:09;;;;;;;;;;;;;;;;;;5059757;28;20405;-70
2022/03/31 14:27:35;;;;;;;;;;;;;;;;;;5070931;28;19936;-70
2022/03/31 14:30:02;;;;;;;;;;;;;;;;;;5060985;28;19931;-69
2022/03/31 14:32:29;;;;;;;;;;;;;;;;;;5054310;28;19932;-70
2022/03/31 14:34:56;;;;;;;;;;;;;;;;;;5051352;28;19934;-71
2022/03/31 14:37:24;;;;;;;;;;;;;;;;;;5053839;28;20295;-71
2022/03/31 14:39:51;;;;;;;;;;;;;;;;;;5062040;28;19925;-70
2022/03/31 14:42:18;;;;;;;;;;;;;;;;;;5055782;28;19932;-68
2022/03/31 14:44:45;;;;;;;;;;;;;;;;;;5064175;28;19924;-69
2022/03/31 14:47:12;;;;;;;;;;;;;;;;;;5063646;28;19925;-68
2022/03/31 14:49:39;;;;;;;;;;;;;;;;;;5058718;28;20016;-70
2022/03/31 14:52:06;;;;;;;;;;;;;;;;;;5058971;28;19932;-70
2022/03/31 14:54:33;;;;;;;;;;;;;;;;;;5067383;28;19924;-70
2022/03/31 14:57:00;;;;;;;;;;;;;;;;;;5065291;28;20005;-69
2022/03/31 14:59:27;;;;;;;;;;;;;;;;;;5067711;28;19932;-68
2022/03/31 15:01:55;;;;;;;;;;;;;;;;;;5070716;28;19925;-68
2022/03/31 15:04:22;;;;;;;;;;;;;;;;;;5064452;28;19928;-70
2022/03/31 15:06:49;;;;;;;;;;;;;;;;;;5073957;28;19969;-70
2022/03/31 15:14:45;;;;;;;;;;;;;;;;;;5054851;28;19958;-71
2022/03/31 15:17:14;;;;;;;;;;;;;;;;;;5068898;28;19967;-71
2022/03/31 15:19:41;;;;;;;;;;;;;;;;;;5056964;28;20579;-71
2022/03/31 15:22:08;;;;;;;;;;;;;;;;;;5074825;28;20027;-71
2022/03/31 15:24:36;;;;;;;;;;;;;;;;;;5081367;28;19932;-71
2022/03/31 15:27:03;;;;;;;;;;;;;;;;;;5083974;28;19924;-71
2022/03/31 15:29:30;;;;;;;;;;;;;;;;;;5083300;28;20390;-71
2022/03/31 15:31:57;;;;;;;;;;;;;;;;;;5086555;28;20331;-71
2022/03/31 15:34:25;;;;;;;;;;;;;;;;;;5089833;28;20363;-70
2022/03/31 15:36:53;;;;;;;;;;;;;;;;;;5089533;28;19924;-71
2022/03/31 15:39:21;;;;;;;;;;;;;;;;;;5088365;28;19929;-72
2022/03/31 15:41:48;;;;;;;;;;;;;;;;;;5090075;28;19977;-70
2022/03/31 15:44:15;;;;;;;;;;;;;;;;;;5090187;28;19924;-70
2022/03/31 15:46:42;;;;;;;;;;;;;;;;;;5085804;28;19966;-71
2022/03/31 15:49:10;;;;;;;;;;;;;;;;;;5084652;28;20161;-71
2022/03/31 15:51:37;;;;;;;;;;;;;;;;;;5093216;28;20286;-72
2022/03/31 15:54:04;;;;;;;;;;;;;;;;;;5090886;28;20302;-71
2022/03/31 15:56:30;;;;;;;;;;;;;;;;;;5091447;28;19968;-71
2022/03/31 15:58:57;;;;;;;;;;;;;;;;;;5087738;28;19924;-73
2022/03/31 16:01:24;;;;;;;;;;;;;;;;;;5092055;28;19970;-71
2022/03/31 16:03:53;;;;;;;;;;;;;;;;;;5087282;28;19930;-71
2022/03/31 16:06:21;;;;;;;;;;;;;;;;;;5090135;28;19924;-70
2022/03/31 16:08:48;;;;;;;;;;;;;;;;;;5088717;28;19928;-69
2022/03/31 16:11:16;;;;;;;;;;;;;;;;;;5088229;28;19924;-71
2022/03/31 16:13:43;;;;;;;;;;;;;;;;;;5091744;28;20379;-71
2022/03/31 16:16:10;;;;;;;;;;;;;;;;;;5088657;28;20322;-71
2022/03/31 16:18:37;;;;;;;;;;;;;;;;;;5088564;28;20305;-71
2022/03/31 16:21:04;;;;;;;;;;;;;;;;;;5090076;28;20388;-70
2022/03/31 16:23:43;;;;;;;;;;;;;;;;;;5091070;28;19924;-72
2022/03/31 16:26:11;;;;;;;;;;;;;;;;;;5090042;28;19924;-71
2022/03/31 16:28:38;;;;;;;;;;;;;;;;;;5086837;28;19924;-72
2022/03/31 16:31:05;;;;;;;;;;;;;;;;;;5090801;28;19924;-73
2022/03/31 16:33:33;;;;;;;;;;;;;;;;;;5090534;28;19931;-74
2022/03/31 16:36:00;;;;;;;;;;;;;;;;;;5086254;28;19974;-72
2022/03/31 16:38:27;;;;;;;;;;;;;;;;;;5088611;28;19971;-71
2022/03/31 16:40:54;;;;;;;;;;;;;;;;;;5091607;28;19999;-71
2022/03/31 16:43:21;;;;;;;;;;;;;;;;;;5088705;28;19928;-70
2022/03/31 16:45:53;;;;;;;;;;;;;;;;;;5089904;28;19947;-72
2022/03/31 16:48:22;;;;;;;;;;;;;;;;;;5082312;28;19959;-74
2022/03/31 16:50:49;;;;;;;;;;;;;;;;;;5088739;28;19931;-72
2022/03/31 16:53:16;;;;;;;;;;;;;;;;;;5089090;28;19930;-73
2022/03/31 16:55:43;;;;;;;;;;;;;;;;;;5087543;28;19993;-72
2022/03/31 16:58:12;;;;;;;;;;;;;;;;;;5084956;28;19967;-77
2022/03/31 17:00:39;;;;;;;;;;;;;;;;;;5085999;28;20019;-73